sensor_id;sensor_type;location;lat;lon;timestamp;temperature;humidity
34698;DHT22;61391;50.922;6.928;2023-05-16T00:00:05;14.10;99.90
34698;DHT22;61391;50.922;6.928;2023-05-16T00:02:34;14.20;99.90
34698;DHT22;61391;50.922;6.928;2023-05-16T00:05:00;14.10;99.90
34698;DHT22;61391;50.922;6.928;2023-05-16T00:07:26;14.00;99.90
34698;DHT22;61391;50.922;6.928;2023-05-16T00:09:51;13.90;99.90
34698;DHT22;61391;50.922;6.928;2023-05-16T00:12:17;13.80;99.90
34698;DHT22;61391;50.922;6.928;2023-05-16T00:14:44;14.00;99.90
34698;DHT22;61391;50.922;6.928;2023-05-16T00:17:09;13.80;99.90
34698;DHT22;61391;50.922;6.928;2023-05-16T00:19:38;13.80;99.90
34698;DHT22;61391;50.922;6.928;2023-05-16T00:22:04;13.80;99.90
34698;DHT22;61391;50.922;6.928;2023-05-16T00:24:30;13.60;99.90
34698;DHT22;61391;50.922;6.928;2023-05-16T00:30:18;13.60;99.90
34698;DHT22;61391;50.922;6.928;2023-05-16T00:32:44;13.50;99.90
34698;DHT22;61391;50.922;6.928;2023-05-16T00:35:10;13.60;99.90
34698;DHT22;61391;50.922;6.928;2023-05-16T00:37:37;13.70;99.90
34698;DHT22;61391;50.922;6.928;2023-05-16T00:40:03;13.70;99.90
34698;DHT22;61391;50.922;6.928;2023-05-16T00:42:29;13.70;99.90
34698;DHT22;61391;50.922;6.928;2023-05-16T00:44:55;13.80;99.90
34698;DHT22;61391;50.922;6.928;2023-05-16T00:47:21;13.80;99.90
34698;DHT22;61391;50.922;6.928;2023-05-16T00:49:46;13.60;99.90
34698;DHT22;61391;50.922;6.928;2023-05-16T00:52:12;13.60;99.90
34698;DHT22;61391;50.922;6.928;2023-05-16T00:54:38;13.80;99.90
34698;DHT22;61391;50.922;6.928;2023-05-16T00:57:04;13.90;99.90
34698;DHT22;61391;50.922;6.928;2023-05-16T00:59:31;13.70;99.90
34698;DHT22;61391;50.922;6.928;2023-05-16T01:01:57;13.70;99.90
34698;DHT22;61391;50.922;6.928;2023-05-16T01:04:23;13.70;99.90
34698;DHT22;61391;50.922;6.928;2023-05-16T01:06:51;13.70;99.90
34698;DHT22;61391;50.922;6.928;2023-05-16T01:09:17;13.90;99.90
34698;DHT22;61391;50.922;6.928;2023-05-16T01:25:50;13.70;99.90
34698;DHT22;61391;50.922;6.928;2023-05-16T01:28:20;13.60;99.90
34698;DHT22;61391;50.922;6.928;2023-05-16T01:30:46;13.60;99.90
34698;DHT22;61391;50.922;6.928;2023-05-16T01:33:12;13.60;99.90
34698;DHT22;61391;50.922;6.928;2023-05-16T01:35:55;13.40;99.90
34698;DHT22;61391;50.922;6.928;2023-05-16T01:42:04;13.10;99.90
34698;DHT22;61391;50.922;6.928;2023-05-16T01:47:13;12.90;99.90
34698;DHT22;61391;50.922;6.928;2023-05-16T01:49:45;13.00;99.90
34698;DHT22;61391;50.922;6.928;2023-05-16T01:52:19;12.90;99.90
34698;DHT22;61391;50.922;6.928;2023-05-16T01:54:47;13.00;99.90
34698;DHT22;61391;50.922;6.928;2023-05-16T01:57:16;13.20;99.90
34698;DHT22;61391;50.922;6.928;2023-05-16T01:59:43;13.10;99.90
34698;DHT22;61391;50.922;6.928;2023-05-16T02:02:10;13.40;99.90
34698;DHT22;61391;50.922;6.928;2023-05-16T02:04:35;13.20;99.90
34698;DHT22;61391;50.922;6.928;2023-05-16T02:07:01;13.40;99.90
34698;DHT22;61391;50.922;6.928;2023-05-16T02:09:27;12.90;99.90
34698;DHT22;61391;50.922;6.928;2023-05-16T02:11:52;12.90;99.90
34698;DHT22;61391;50.922;6.928;2023-05-16T02:14:18;12.80;99.90
34698;DHT22;61391;50.922;6.928;2023-05-16T02:16:43;12.90;99.90
34698;DHT22;61391;50.922;6.928;2023-05-16T02:19:09;12.80;99.90
34698;DHT22;61391;50.922;6.928;2023-05-16T02:21:37;13.00;99.90
34698;DHT22;61391;50.922;6.928;2023-05-16T02:24:02;12.80;99.90
34698;DHT22;61391;50.922;6.928;2023-05-16T02:26:28;12.80;99.90
34698;DHT22;61391;50.922;6.928;2023-05-16T02:28:54;12.80;99.90
34698;DHT22;61391;50.922;6.928;2023-05-16T02:31:27;12.60;99.90
34698;DHT22;61391;50.922;6.928;2023-05-16T02:33:53;12.40;99.90
34698;DHT22;61391;50.922;6.928;2023-05-16T02:36:19;12.40;99.90
34698;DHT22;61391;50.922;6.928;2023-05-16T02:38:45;12.30;99.90
34698;DHT22;61391;50.922;6.928;2023-05-16T02:41:11;12.20;99.90
34698;DHT22;61391;50.922;6.928;2023-05-16T02:43:36;12.20;99.90
34698;DHT22;61391;50.922;6.928;2023-05-16T02:46:24;12.10;99.90
34698;DHT22;61391;50.922;6.928;2023-05-16T02:48:50;12.20;99.90
34698;DHT22;61391;50.922;6.928;2023-05-16T02:51:17;12.00;99.90
34698;DHT22;61391;50.922;6.928;2023-05-16T02:53:43;11.90;99.90
34698;DHT22;61391;50.922;6.928;2023-05-16T02:56:09;12.50;99.90
34698;DHT22;61391;50.922;6.928;2023-05-16T02:58:35;12.20;99.90
34698;DHT22;61391;50.922;6.928;2023-05-16T03:01:00;12.30;99.90
34698;DHT22;61391;50.922;6.928;2023-05-16T03:03:26;12.00;99.90
34698;DHT22;61391;50.922;6.928;2023-05-16T03:05:52;12.30;99.90
34698;DHT22;61391;50.922;6.928;2023-05-16T03:11:39;12.20;99.90
34698;DHT22;61391;50.922;6.928;2023-05-16T03:14:05;12.00;99.90
34698;DHT22;61391;50.922;6.928;2023-05-16T03:16:30;11.80;99.90
34698;DHT22;61391;50.922;6.928;2023-05-16T03:18:56;12.00;99.90
34698;DHT22;61391;50.922;6.928;2023-05-16T03:24:44;12.10;99.90
34698;DHT22;61391;50.922;6.928;2023-05-16T03:27:10;12.60;99.90
34698;DHT22;61391;50.922;6.928;2023-05-16T03:29:36;12.30;99.90
34698;DHT22;61391;50.922;6.928;2023-05-16T03:32:01;12.30;99.90
34698;DHT22;61391;50.922;6.928;2023-05-16T03:34:27;12.50;99.90
34698;DHT22;61391;50.922;6.928;2023-05-16T03:36:53;12.70;99.90
34698;DHT22;61391;50.922;6.928;2023-05-16T03:39:19;12.50;99.90
34698;DHT22;61391;50.922;6.928;2023-05-16T03:41:44;12.40;99.90
34698;DHT22;61391;50.922;6.928;2023-05-16T03:44:10;12.40;99.90
34698;DHT22;61391;50.922;6.928;2023-05-16T03:46:36;12.50;99.90
34698;DHT22;61391;50.922;6.928;2023-05-16T03:49:01;12.60;99.90
34698;DHT22;61391;50.922;6.928;2023-05-16T03:51:28;12.50;99.90
34698;DHT22;61391;50.922;6.928;2023-05-16T03:53:55;12.40;99.90
34698;DHT22;61391;50.922;6.928;2023-05-16T03:56:20;12.20;99.90
34698;DHT22;61391;50.922;6.928;2023-05-16T03:58:47;12.20;99.90
34698;DHT22;61391;50.922;6.928;2023-05-16T04:01:12;12.40;99.90
34698;DHT22;61391;50.922;6.928;2023-05-16T04:03:38;12.30;99.90
34698;DHT22;61391;50.922;6.928;2023-05-16T04:06:05;12.50;99.90
34698;DHT22;61391;50.922;6.928;2023-05-16T04:08:48;12.60;99.90
34698;DHT22;61391;50.922;6.928;2023-05-16T04:11:14;12.50;99.90
34698;DHT22;61391;50.922;6.928;2023-05-16T04:13:41;12.60;99.90
34698;DHT22;61391;50.922;6.928;2023-05-16T04:16:06;12.60;99.90
34698;DHT22;61391;50.922;6.928;2023-05-16T04:21:24;12.80;99.90
34698;DHT22;61391;50.922;6.928;2023-05-16T04:23:51;12.90;99.90
34698;DHT22;61391;50.922;6.928;2023-05-16T04:26:20;12.90;99.90
34698;DHT22;61391;50.922;6.928;2023-05-16T04:28:46;12.90;99.90
34698;DHT22;61391;50.922;6.928;2023-05-16T04:31:12;12.40;99.90
34698;DHT22;61391;50.922;6.928;2023-05-16T04:33:38;12.30;99.90
34698;DHT22;61391;50.922;6.928;2023-05-16T04:36:04;12.40;99.90
34698;DHT22;61391;50.922;6.928;2023-05-16T04:38:30;12.20;99.90
34698;DHT22;61391;50.922;6.928;2023-05-16T04:40:57;12.20;99.90
34698;DHT22;61391;50.922;6.928;2023-05-16T04:43:23;12.00;99.90
34698;DHT22;61391;50.922;6.928;2023-05-16T04:45:48;12.10;99.90
34698;DHT22;61391;50.922;6.928;2023-05-16T04:48:15;12.30;99.90
34698;DHT22;61391;50.922;6.928;2023-05-16T04:50:40;12.40;99.90
34698;DHT22;61391;50.922;6.928;2023-05-16T04:53:06;12.50;99.90
34698;DHT22;61391;50.922;6.928;2023-05-16T04:55:33;12.40;99.90
34698;DHT22;61391;50.922;6.928;2023-05-16T04:57:59;12.50;99.90
34698;DHT22;61391;50.922;6.928;2023-05-16T05:00:24;12.30;99.90
34698;DHT22;61391;50.922;6.928;2023-05-16T05:02:50;12.20;99.90
34698;DHT22;61391;50.922;6.928;2023-05-16T05:08:37;12.10;99.90
34698;DHT22;61391;50.922;6.928;2023-05-16T05:11:03;12.10;99.90
34698;DHT22;61391;50.922;6.928;2023-05-16T05:13:29;12.00;99.90
34698;DHT22;61391;50.922;6.928;2023-05-16T05:15:54;11.80;99.90
34698;DHT22;61391;50.922;6.928;2023-05-16T05:18:20;11.80;99.90
34698;DHT22;61391;50.922;6.928;2023-05-16T05:20:46;11.80;99.90
34698;DHT22;61391;50.922;6.928;2023-05-16T05:23:12;11.70;99.90
34698;DHT22;61391;50.922;6.928;2023-05-16T05:25:38;12.20;99.90
34698;DHT22;61391;50.922;6.928;2023-05-16T05:28:04;12.00;99.90
34698;DHT22;61391;50.922;6.928;2023-05-16T05:30:29;12.10;99.90
34698;DHT22;61391;50.922;6.928;2023-05-16T05:32:55;12.30;99.90
34698;DHT22;61391;50.922;6.928;2023-05-16T05:35:21;12.20;99.90
34698;DHT22;61391;50.922;6.928;2023-05-16T05:41:09;12.10;99.90
34698;DHT22;61391;50.922;6.928;2023-05-16T05:43:36;12.20;99.90
34698;DHT22;61391;50.922;6.928;2023-05-16T05:46:02;12.40;99.90
34698;DHT22;61391;50.922;6.928;2023-05-16T05:48:27;12.50;99.90
34698;DHT22;61391;50.922;6.928;2023-05-16T05:50:54;12.70;99.90
34698;DHT22;61391;50.922;6.928;2023-05-16T05:56:42;12.80;99.90
34698;DHT22;61391;50.922;6.928;2023-05-16T05:59:08;12.80;99.90
34698;DHT22;61391;50.922;6.928;2023-05-16T06:01:34;12.70;99.90
34698;DHT22;61391;50.922;6.928;2023-05-16T06:04:02;12.60;99.90
34698;DHT22;61391;50.922;6.928;2023-05-16T06:06:31;12.70;99.90
34698;DHT22;61391;50.922;6.928;2023-05-16T06:09:01;12.60;99.90
34698;DHT22;61391;50.922;6.928;2023-05-16T06:11:26;12.80;99.90
34698;DHT22;61391;50.922;6.928;2023-05-16T06:13:52;12.80;99.90
34698;DHT22;61391;50.922;6.928;2023-05-16T06:16:18;13.10;99.90
34698;DHT22;61391;50.922;6.928;2023-05-16T06:18:44;13.20;99.90
34698;DHT22;61391;50.922;6.928;2023-05-16T06:21:10;13.90;99.90
34698;DHT22;61391;50.922;6.928;2023-05-16T06:23:35;14.10;99.90
34698;DHT22;61391;50.922;6.928;2023-05-16T06:26:02;14.50;99.90
34698;DHT22;61391;50.922;6.928;2023-05-16T06:28:28;14.30;99.90
34698;DHT22;61391;50.922;6.928;2023-05-16T06:30:54;14.50;99.90
34698;DHT22;61391;50.922;6.928;2023-05-16T06:33:20;13.60;99.90
34698;DHT22;61391;50.922;6.928;2023-05-16T06:35:45;13.40;99.90
34698;DHT22;61391;50.922;6.928;2023-05-16T06:38:12;13.50;99.90
34698;DHT22;61391;50.922;6.928;2023-05-16T06:40:38;14.00;99.90
34698;DHT22;61391;50.922;6.928;2023-05-16T06:43:03;14.40;99.90
34698;DHT22;61391;50.922;6.928;2023-05-16T06:45:29;14.50;99.90
34698;DHT22;61391;50.922;6.928;2023-05-16T06:47:55;14.60;99.90
34698;DHT22;61391;50.922;6.928;2023-05-16T06:53:43;14.80;99.90
34698;DHT22;61391;50.922;6.928;2023-05-16T06:56:08;14.70;99.90
34698;DHT22;61391;50.922;6.928;2023-05-16T06:58:35;14.80;99.90
34698;DHT22;61391;50.922;6.928;2023-05-16T07:01:01;14.80;99.90
34698;DHT22;61391;50.922;6.928;2023-05-16T07:03:27;15.70;99.90
34698;DHT22;61391;50.922;6.928;2023-05-16T07:05:53;16.10;99.90
34698;DHT22;61391;50.922;6.928;2023-05-16T07:08:18;16.80;99.90
34698;DHT22;61391;50.922;6.928;2023-05-16T07:10:47;17.00;99.90
34698;DHT22;61391;50.922;6.928;2023-05-16T07:13:13;17.20;99.90
34698;DHT22;61391;50.922;6.928;2023-05-16T07:15:38;17.20;99.90
34698;DHT22;61391;50.922;6.928;2023-05-16T07:18:04;17.80;99.90
34698;DHT22;61391;50.922;6.928;2023-05-16T07:23:52;18.40;99.90
34698;DHT22;61391;50.922;6.928;2023-05-16T07:26:17;18.70;99.90
34698;DHT22;61391;50.922;6.928;2023-05-16T07:28:43;20.10;99.90
34698;DHT22;61391;50.922;6.928;2023-05-16T07:31:09;21.30;99.90
34698;DHT22;61391;50.922;6.928;2023-05-16T07:36:56;23.80;92.50
34698;DHT22;61391;50.922;6.928;2023-05-16T07:39:22;23.50;90.30
34698;DHT22;61391;50.922;6.928;2023-05-16T07:41:48;25.20;87.50
34698;DHT22;61391;50.922;6.928;2023-05-16T07:44:13;26.50;80.60
34698;DHT22;61391;50.922;6.928;2023-05-16T07:46:39;27.10;77.40
34698;DHT22;61391;50.922;6.928;2023-05-16T07:49:04;27.50;77.70
34698;DHT22;61391;50.922;6.928;2023-05-16T07:51:30;27.00;79.10
34698;DHT22;61391;50.922;6.928;2023-05-16T07:53:56;27.20;79.80
34698;DHT22;61391;50.922;6.928;2023-05-16T07:56:21;27.70;79.30
34698;DHT22;61391;50.922;6.928;2023-05-16T07:58:48;27.40;76.70
34698;DHT22;61391;50.922;6.928;2023-05-16T08:04:36;24.90;82.20
34698;DHT22;61391;50.922;6.928;2023-05-16T08:07:03;23.20;83.20
34698;DHT22;61391;50.922;6.928;2023-05-16T08:09:29;21.60;90.00
34698;DHT22;61391;50.922;6.928;2023-05-16T08:11:54;20.70;91.20
34698;DHT22;61391;50.922;6.928;2023-05-16T08:14:21;19.70;95.00
34698;DHT22;61391;50.922;6.928;2023-05-16T08:16:47;18.80;99.90
34698;DHT22;61391;50.922;6.928;2023-05-16T08:19:12;18.20;99.90
34698;DHT22;61391;50.922;6.928;2023-05-16T08:21:38;17.60;99.90
34698;DHT22;61391;50.922;6.928;2023-05-16T08:24:05;17.30;99.90
34698;DHT22;61391;50.922;6.928;2023-05-16T08:26:31;16.90;99.90
34698;DHT22;61391;50.922;6.928;2023-05-16T08:28:59;16.60;99.90
34698;DHT22;61391;50.922;6.928;2023-05-16T08:31:24;16.40;99.90
34698;DHT22;61391;50.922;6.928;2023-05-16T08:33:50;16.60;99.90
34698;DHT22;61391;50.922;6.928;2023-05-16T08:36:15;17.30;99.90
34698;DHT22;61391;50.922;6.928;2023-05-16T08:38:44;17.80;99.90
34698;DHT22;61391;50.922;6.928;2023-05-16T08:41:09;18.40;99.90
34698;DHT22;61391;50.922;6.928;2023-05-16T08:43:35;18.40;99.90
34698;DHT22;61391;50.922;6.928;2023-05-16T08:46:01;19.80;99.90
34698;DHT22;61391;50.922;6.928;2023-05-16T08:48:27;20.90;97.20
34698;DHT22;61391;50.922;6.928;2023-05-16T08:50:56;20.80;95.20
34698;DHT22;61391;50.922;6.928;2023-05-16T08:53:35;20.60;95.80
34698;DHT22;61391;50.922;6.928;2023-05-16T08:56:06;21.10;92.90
34698;DHT22;61391;50.922;6.928;2023-05-16T08:58:34;22.70;92.30
34698;DHT22;61391;50.922;6.928;2023-05-16T09:04:28;24.80;78.10
34698;DHT22;61391;50.922;6.928;2023-05-16T09:06:59;24.80;78.60
34698;DHT22;61391;50.922;6.928;2023-05-16T09:09:28;25.80;76.30
34698;DHT22;61391;50.922;6.928;2023-05-16T09:11:58;26.70;71.90
34698;DHT22;61391;50.922;6.928;2023-05-16T09:14:24;27.60;69.20
34698;DHT22;61391;50.922;6.928;2023-05-16T09:17:03;28.30;65.80
34698;DHT22;61391;50.922;6.928;2023-05-16T09:19:39;28.80;64.40
34698;DHT22;61391;50.922;6.928;2023-05-16T09:22:12;29.10;61.50
34698;DHT22;61391;50.922;6.928;2023-05-16T09:24:42;28.80;61.90
34698;DHT22;61391;50.922;6.928;2023-05-16T09:27:10;26.40;63.30
34698;DHT22;61391;50.922;6.928;2023-05-16T09:29:47;24.80;69.30
34698;DHT22;61391;50.922;6.928;2023-05-16T09:32:19;23.00;71.30
34698;DHT22;61391;50.922;6.928;2023-05-16T09:34:51;21.40;74.20
34698;DHT22;61391;50.922;6.928;2023-05-16T09:40:55;21.40;79.30
34698;DHT22;61391;50.922;6.928;2023-05-16T09:43:28;22.90;73.60
34698;DHT22;61391;50.922;6.928;2023-05-16T09:46:02;23.00;75.00
34698;DHT22;61391;50.922;6.928;2023-05-16T09:48:27;23.00;76.40
34698;DHT22;61391;50.922;6.928;2023-05-16T09:50:59;23.10;75.90
34698;DHT22;61391;50.922;6.928;2023-05-16T09:53:30;23.70;71.70
34698;DHT22;61391;50.922;6.928;2023-05-16T09:56:00;23.30;72.20
34698;DHT22;61391;50.922;6.928;2023-05-16T09:58:31;24.10;71.60
34698;DHT22;61391;50.922;6.928;2023-05-16T10:01:05;25.00;70.00
34698;DHT22;61391;50.922;6.928;2023-05-16T10:03:44;25.80;68.50
34698;DHT22;61391;50.922;6.928;2023-05-16T10:06:11;24.00;68.50
34698;DHT22;61391;50.922;6.928;2023-05-16T10:08:44;23.50;71.70
34698;DHT22;61391;50.922;6.928;2023-05-16T10:11:15;24.80;69.80
34698;DHT22;61391;50.922;6.928;2023-05-16T10:13:53;26.00;67.30
34698;DHT22;61391;50.922;6.928;2023-05-16T10:16:25;27.30;64.70
34698;DHT22;61391;50.922;6.928;2023-05-16T10:18:53;27.50;63.50
34698;DHT22;61391;50.922;6.928;2023-05-16T10:21:25;26.40;63.70
34698;DHT22;61391;50.922;6.928;2023-05-16T10:24:10;26.30;63.10
34698;DHT22;61391;50.922;6.928;2023-05-16T10:26:47;27.50;62.20
34698;DHT22;61391;50.922;6.928;2023-05-16T10:29:16;28.60;61.40
34698;DHT22;61391;50.922;6.928;2023-05-16T10:31:56;29.20;58.20
34698;DHT22;61391;50.922;6.928;2023-05-16T10:34:31;27.80;58.80
34698;DHT22;61391;50.922;6.928;2023-05-16T10:40:26;27.60;60.10
34698;DHT22;61391;50.922;6.928;2023-05-16T10:43:03;26.40;62.30
34698;DHT22;61391;50.922;6.928;2023-05-16T10:45:31;26.90;59.30
34698;DHT22;61391;50.922;6.928;2023-05-16T10:48:05;27.60;59.50
34698;DHT22;61391;50.922;6.928;2023-05-16T10:50:52;28.30;60.30
34698;DHT22;61391;50.922;6.928;2023-05-16T10:53:32;28.10;59.20
34698;DHT22;61391;50.922;6.928;2023-05-16T10:58:43;26.80;59.40
34698;DHT22;61391;50.922;6.928;2023-05-16T11:01:25;25.90;60.60
34698;DHT22;61391;50.922;6.928;2023-05-16T11:04:10;24.50;62.90
34698;DHT22;61391;50.922;6.928;2023-05-16T11:06:49;23.60;64.80
34698;DHT22;61391;50.922;6.928;2023-05-16T11:09:25;22.40;64.80
34698;DHT22;61391;50.922;6.928;2023-05-16T11:20:28;20.70;71.80
34698;DHT22;61391;50.922;6.928;2023-05-16T11:23:17;21.90;69.30
34698;DHT22;61391;50.922;6.928;2023-05-16T11:25:47;23.30;66.80
34698;DHT22;61391;50.922;6.928;2023-05-16T11:28:15;23.30;64.80
34698;DHT22;61391;50.922;6.928;2023-05-16T11:30:45;22.90;65.40
34698;DHT22;61391;50.922;6.928;2023-05-16T11:33:34;22.10;67.30
34698;DHT22;61391;50.922;6.928;2023-05-16T11:36:05;21.40;68.80
34698;DHT22;61391;50.922;6.928;2023-05-16T11:38:36;21.40;70.00
34698;DHT22;61391;50.922;6.928;2023-05-16T11:44:26;23.50;66.30
34698;DHT22;61391;50.922;6.928;2023-05-16T11:46:54;24.10;66.00
34698;DHT22;61391;50.922;6.928;2023-05-16T11:49:22;24.30;65.60
34698;DHT22;61391;50.922;6.928;2023-05-16T11:51:57;24.10;64.80
34698;DHT22;61391;50.922;6.928;2023-05-16T11:54:27;23.90;65.90
34698;DHT22;61391;50.922;6.928;2023-05-16T12:00:27;22.80;68.80
34698;DHT22;61391;50.922;6.928;2023-05-16T12:03:03;21.80;70.20
34698;DHT22;61391;50.922;6.928;2023-05-16T12:05:34;21.50;71.50
34698;DHT22;61391;50.922;6.928;2023-05-16T12:08:00;21.30;72.60
34698;DHT22;61391;50.922;6.928;2023-05-16T12:10:38;21.00;73.40
34698;DHT22;61391;50.922;6.928;2023-05-16T12:13:08;20.70;73.80
34698;DHT22;61391;50.922;6.928;2023-05-16T12:15:46;20.80;74.30
34698;DHT22;61391;50.922;6.928;2023-05-16T12:18:12;20.90;74.70
34698;DHT22;61391;50.922;6.928;2023-05-16T12:28:03;20.60;75.40
34698;DHT22;61391;50.922;6.928;2023-05-16T12:30:35;19.90;75.20
34698;DHT22;61391;50.922;6.928;2023-05-16T12:33:10;19.60;73.70
34698;DHT22;61391;50.922;6.928;2023-05-16T12:39:16;19.10;76.70
34698;DHT22;61391;50.922;6.928;2023-05-16T12:41:53;19.20;77.20
34698;DHT22;61391;50.922;6.928;2023-05-16T12:44:24;19.30;78.00
34698;DHT22;61391;50.922;6.928;2023-05-16T12:46:57;19.50;77.30
34698;DHT22;61391;50.922;6.928;2023-05-16T12:49:32;19.60;77.90
34698;DHT22;61391;50.922;6.928;2023-05-16T12:52:19;19.40;79.30
34698;DHT22;61391;50.922;6.928;2023-05-16T12:54:47;19.10;82.70
34698;DHT22;61391;50.922;6.928;2023-05-16T12:57:17;19.30;83.40
34698;DHT22;61391;50.922;6.928;2023-05-16T12:59:44;19.30;83.10
34698;DHT22;61391;50.922;6.928;2023-05-16T13:02:29;19.70;82.10
34698;DHT22;61391;50.922;6.928;2023-05-16T13:05:01;19.70;82.10
34698;DHT22;61391;50.922;6.928;2023-05-16T13:07:29;19.40;82.00
34698;DHT22;61391;50.922;6.928;2023-05-16T13:09:57;19.50;83.40
34698;DHT22;61391;50.922;6.928;2023-05-16T13:12:25;19.40;84.20
34698;DHT22;61391;50.922;6.928;2023-05-16T13:14:57;19.30;85.60
34698;DHT22;61391;50.922;6.928;2023-05-16T13:17:27;19.20;85.70
34698;DHT22;61391;50.922;6.928;2023-05-16T13:23:20;18.70;85.80
34698;DHT22;61391;50.922;6.928;2023-05-16T13:36:00;19.10;80.20
34698;DHT22;61391;50.922;6.928;2023-05-16T13:41:51;19.10;78.30
34698;DHT22;61391;50.922;6.928;2023-05-16T13:47:48;19.40;78.40
34698;DHT22;61391;50.922;6.928;2023-05-16T13:50:20;19.40;78.30
34698;DHT22;61391;50.922;6.928;2023-05-16T14:09:47;19.90;76.10
34698;DHT22;61391;50.922;6.928;2023-05-16T14:12:36;19.80;76.90
34698;DHT22;61391;50.922;6.928;2023-05-16T14:15:03;19.90;75.30
34698;DHT22;61391;50.922;6.928;2023-05-16T14:20:57;19.50;73.50
34698;DHT22;61391;50.922;6.928;2023-05-16T14:23:24;19.50;72.90
34698;DHT22;61391;50.922;6.928;2023-05-16T14:26:00;19.30;73.80
34698;DHT22;61391;50.922;6.928;2023-05-16T14:38:59;19.10;71.60
34698;DHT22;61391;50.922;6.928;2023-05-16T14:41:26;18.90;71.90
34698;DHT22;61391;50.922;6.928;2023-05-16T14:43:52;18.80;72.40
34698;DHT22;61391;50.922;6.928;2023-05-16T14:46:19;18.90;73.00
34698;DHT22;61391;50.922;6.928;2023-05-16T15:12:45;18.30;78.30
34698;DHT22;61391;50.922;6.928;2023-05-16T15:15:12;18.30;79.60
34698;DHT22;61391;50.922;6.928;2023-05-16T15:17:39;18.20;80.50
34698;DHT22;61391;50.922;6.928;2023-05-16T15:20:06;18.40;80.10
34698;DHT22;61391;50.922;6.928;2023-05-16T15:22:34;18.70;80.00
34698;DHT22;61391;50.922;6.928;2023-05-16T15:25:00;18.70;79.50
34698;DHT22;61391;50.922;6.928;2023-05-16T15:27:28;18.50;80.50
34698;DHT22;61391;50.922;6.928;2023-05-16T15:33:16;18.70;80.70
34698;DHT22;61391;50.922;6.928;2023-05-16T15:36:05;18.80;80.40
34698;DHT22;61391;50.922;6.928;2023-05-16T15:38:58;18.70;81.10
34698;DHT22;61391;50.922;6.928;2023-05-16T15:41:33;18.70;82.10
34698;DHT22;61391;50.922;6.928;2023-05-16T15:44:14;18.60;81.80
34698;DHT22;61391;50.922;6.928;2023-05-16T15:46:40;18.60;82.10
34698;DHT22;61391;50.922;6.928;2023-05-16T15:49:07;18.40;83.20
34698;DHT22;61391;50.922;6.928;2023-05-16T15:51:35;18.10;82.10
34698;DHT22;61391;50.922;6.928;2023-05-16T15:57:42;18.10;82.70
34698;DHT22;61391;50.922;6.928;2023-05-16T16:03:31;17.80;83.70
34698;DHT22;61391;50.922;6.928;2023-05-16T16:05:58;17.80;83.10
34698;DHT22;61391;50.922;6.928;2023-05-16T16:25:24;17.80;85.40
34698;DHT22;61391;50.922;6.928;2023-05-16T16:27:54;17.90;84.70
34698;DHT22;61391;50.922;6.928;2023-05-16T16:33:50;17.90;84.30
34698;DHT22;61391;50.922;6.928;2023-05-16T16:36:16;17.70;85.60
34698;DHT22;61391;50.922;6.928;2023-05-16T16:38:45;17.90;85.20
34698;DHT22;61391;50.922;6.928;2023-05-16T16:41:26;17.80;86.70
34698;DHT22;61391;50.922;6.928;2023-05-16T16:43:58;17.80;86.90
34698;DHT22;61391;50.922;6.928;2023-05-16T16:46:28;17.50;87.30
34698;DHT22;61391;50.922;6.928;2023-05-16T16:48:59;17.50;88.30
34698;DHT22;61391;50.922;6.928;2023-05-16T16:51:31;17.20;88.80
34698;DHT22;61391;50.922;6.928;2023-05-16T16:54:01;17.10;90.10
34698;DHT22;61391;50.922;6.928;2023-05-16T16:56:32;17.00;90.80
34698;DHT22;61391;50.922;6.928;2023-05-16T16:59:01;16.90;91.50
34698;DHT22;61391;50.922;6.928;2023-05-16T17:01:27;16.90;92.60
34698;DHT22;61391;50.922;6.928;2023-05-16T17:03:56;16.80;92.70
34698;DHT22;61391;50.922;6.928;2023-05-16T17:06:24;16.70;93.00
34698;DHT22;61391;50.922;6.928;2023-05-16T17:08:50;16.70;93.60
34698;DHT22;61391;50.922;6.928;2023-05-16T17:11:16;16.90;93.10
34698;DHT22;61391;50.922;6.928;2023-05-16T17:13:48;17.00;93.20
34698;DHT22;61391;50.922;6.928;2023-05-16T17:16:15;16.90;93.20
34698;DHT22;61391;50.922;6.928;2023-05-16T17:18:41;16.70;93.60
34698;DHT22;61391;50.922;6.928;2023-05-16T17:21:11;16.50;94.60
34698;DHT22;61391;50.922;6.928;2023-05-16T17:27:02;16.70;95.30
34698;DHT22;61391;50.922;6.928;2023-05-16T17:29:28;16.80;95.80
34698;DHT22;61391;50.922;6.928;2023-05-16T17:31:53;16.60;96.80
34698;DHT22;61391;50.922;6.928;2023-05-16T17:34:19;16.50;97.40
34698;DHT22;61391;50.922;6.928;2023-05-16T17:36:46;16.40;98.30
34698;DHT22;61391;50.922;6.928;2023-05-16T17:39:14;16.10;98.40
34698;DHT22;61391;50.922;6.928;2023-05-16T17:41:39;16.20;98.50
34698;DHT22;61391;50.922;6.928;2023-05-16T17:44:06;16.10;99.00
34698;DHT22;61391;50.922;6.928;2023-05-16T17:46:32;16.10;98.90
34698;DHT22;61391;50.922;6.928;2023-05-16T17:52:21;16.00;97.50
34698;DHT22;61391;50.922;6.928;2023-05-16T17:54:47;16.00;98.00
34698;DHT22;61391;50.922;6.928;2023-05-16T17:57:13;15.70;99.20
34698;DHT22;61391;50.922;6.928;2023-05-16T17:59:39;15.60;99.00
34698;DHT22;61391;50.922;6.928;2023-05-16T18:02:05;15.50;99.90
34698;DHT22;61391;50.922;6.928;2023-05-16T18:04:36;15.60;99.90
34698;DHT22;61391;50.922;6.928;2023-05-16T18:07:02;15.60;99.90
34698;DHT22;61391;50.922;6.928;2023-05-16T18:09:28;15.60;99.90
34698;DHT22;61391;50.922;6.928;2023-05-16T18:15:16;15.60;99.90
34698;DHT22;61391;50.922;6.928;2023-05-16T18:21:05;15.60;99.90
34698;DHT22;61391;50.922;6.928;2023-05-16T18:23:33;15.60;99.90
34698;DHT22;61391;50.922;6.928;2023-05-16T18:25:59;15.60;99.90
34698;DHT22;61391;50.922;6.928;2023-05-16T18:28:26;15.40;99.90
34698;DHT22;61391;50.922;6.928;2023-05-16T18:30:53;15.50;99.90
34698;DHT22;61391;50.922;6.928;2023-05-16T18:33:19;15.80;99.90
34698;DHT22;61391;50.922;6.928;2023-05-16T18:35:54;15.70;99.90
34698;DHT22;61391;50.922;6.928;2023-05-16T18:38:20;15.60;99.90
34698;DHT22;61391;50.922;6.928;2023-05-16T18:44:08;15.60;99.90
34698;DHT22;61391;50.922;6.928;2023-05-16T18:46:37;15.60;99.90
34698;DHT22;61391;50.922;6.928;2023-05-16T18:49:03;15.60;99.90
34698;DHT22;61391;50.922;6.928;2023-05-16T18:55:11;15.70;99.90
34698;DHT22;61391;50.922;6.928;2023-05-16T18:57:46;15.40;99.90
34698;DHT22;61391;50.922;6.928;2023-05-16T19:00:12;15.50;99.90
34698;DHT22;61391;50.922;6.928;2023-05-16T19:02:38;15.40;99.90
34698;DHT22;61391;50.922;6.928;2023-05-16T19:08:26;15.20;99.90
34698;DHT22;61391;50.922;6.928;2023-05-16T19:10:52;15.20;99.90
34698;DHT22;61391;50.922;6.928;2023-05-16T19:30:17;15.10;99.90
34698;DHT22;61391;50.922;6.928;2023-05-16T19:32:43;15.30;99.90
34698;DHT22;61391;50.922;6.928;2023-05-16T19:38:31;15.20;99.90
34698;DHT22;61391;50.922;6.928;2023-05-16T19:44:40;15.10;99.90
34698;DHT22;61391;50.922;6.928;2023-05-16T19:50:32;15.20;99.90